Time;durP1;ratioP1;P1;durP2;ratioP2;P2;SDS_P1;SDS_P2;PMS_P1;PMS_P2;Temp;Humidity;BMP_temperature;BMP_pressure;BME280_temperature;BME280_humidity;BME280_pressure;Samples;Min_cycle;Max_cycle;Signal;HPM_P1;HPM_P2
2021/11/06 00:06:25;;;;;;;1999.90;999.90;;;;;;;9.09;78.17;102000.09;15836266;28;20050;-57
2021/11/06 00:13:58;;;;;;;1999.90;999.90;;;;;;;9.03;78.47;102012.38;15825583;28;20497;-58
2021/11/06 00:21:31;;;;;;;1999.90;999.90;;;;;;;9.09;78.45;102011.22;15850089;28;20050;-58
2021/11/06 00:29:05;;;;;;;1999.90;999.90;;;;;;;9.07;78.76;102011.53;15827081;28;20039;-55
2021/11/06 00:36:38;;;;;;;1999.90;999.90;;;;;;;9.18;78.36;102018.66;15832649;28;20048;-58
2021/11/06 00:44:13;;;;;;;1999.90;999.90;;;;;;;9.19;78.48;102014.75;15836490;28;20044;-57
2021/11/06 00:51:45;;;;;;;1999.90;999.90;;;;;;;9.18;79.06;102017.84;15831401;28;20190;-60
2021/11/06 00:59:19;;;;;;;1999.90;999.90;;;;;;;9.35;78.70;102020.19;15839409;28;20044;-60
2021/11/06 01:06:52;;;;;;;1999.90;999.90;;;;;;;9.33;78.74;102023.25;15831242;28;20048;-61
2021/11/06 01:14:26;;;;;;;1999.90;999.90;;;;;;;9.29;78.96;102022.19;15837576;28;20047;-59
2021/11/06 01:21:58;;;;;;;1999.90;999.90;;;;;;;9.23;78.50;102037.28;15820182;28;20044;-59
2021/11/06 01:29:32;;;;;;;1999.90;999.90;;;;;;;9.14;79.29;102039.03;15825654;28;20044;-59
2021/11/06 01:37:05;;;;;;;1999.90;999.90;;;;;;;8.96;79.50;102044.19;15843155;28;20397;-57
2021/11/06 01:44:39;;;;;;;1999.90;999.90;;;;;;;9.13;79.53;102042.94;15843922;28;20052;-60
2021/11/06 01:52:12;;;;;;;1999.90;999.90;;;;;;;9.24;78.60;102039.78;15801550;28;20431;-59
2021/11/06 01:59:46;;;;;;;1999.90;999.90;;;;;;;9.24;78.19;102034.19;15846090;28;20057;-62
2021/11/06 02:07:19;;;;;;;1999.90;999.90;;;;;;;9.18;78.86;102038.16;15834064;28;20131;-59
2021/11/06 02:14:53;;;;;;;1999.90;999.90;;;;;;;9.07;79.67;102030.19;15822252;28;20086;-57
2021/11/06 02:22:31;;;;;;;1999.90;999.90;;;;;;;9.31;79.15;102027.47;15855802;28;20209;-58
2021/11/06 02:30:05;;;;;;;1999.90;999.90;;;;;;;9.26;79.39;102043.09;15831552;28;20070;-59
2021/11/06 02:37:42;;;;;;;1999.90;999.90;;;;;;;9.57;78.67;102044.75;15847075;28;20043;-59
2021/11/06 02:45:14;;;;;;;1999.90;999.90;;;;;;;9.37;79.38;102043.81;15868941;28;20054;-58
2021/11/06 02:52:48;;;;;;;1999.90;999.90;;;;;;;9.52;78.92;102046.47;15874792;28;20075;-57
2021/11/06 03:00:22;;;;;;;1999.90;999.90;;;;;;;9.65;78.61;102049.69;15839263;22;20498;-59
2021/11/06 03:07:56;;;;;;;1999.90;999.90;;;;;;;9.75;78.25;102044.84;15789229;28;20492;-60
2021/11/06 03:15:29;;;;;;;1999.90;999.90;;;;;;;9.42;79.56;102051.31;15712123;28;20080;-59
2021/11/06 03:23:03;;;;;;;1999.90;999.90;;;;;;;9.68;78.85;102054.66;15732052;28;20080;-60
2021/11/06 03:30:36;;;;;;;1999.90;999.90;;;;;;;9.74;78.61;102062.69;15693602;28;20044;-59
2021/11/06 03:38:10;;;;;;;1999.90;999.90;;;;;;;9.78;78.20;102055.41;15723264;28;20512;-60
2021/11/06 03:45:43;;;;;;;1999.90;999.90;;;;;;;9.69;78.00;102062.75;15661561;28;20049;-59
2021/11/06 03:53:18;;;;;;;1999.90;999.90;;;;;;;9.71;78.17;102063.28;15688275;28;20470;-60
2021/11/06 04:00:50;;;;;;;1999.90;999.90;;;;;;;9.84;77.63;102065.38;15721469;28;20303;-58
2021/11/06 04:08:25;;;;;;;1999.90;999.90;;;;;;;9.94;77.26;102066.41;15686458;28;20086;-59
2021/11/06 04:15:57;;;;;;;1999.90;999.90;;;;;;;9.76;77.76;102074.38;15701139;28;20040;-59
2021/11/06 04:23:31;;;;;;;1999.90;999.90;;;;;;;10.01;77.21;102083.63;15721930;28;20079;-59
2021/11/06 04:31:04;;;;;;;1999.90;999.90;;;;;;;10.00;76.36;102082.75;15664890;28;20131;-59
2021/11/06 04:38:38;;;;;;;1999.90;999.90;;;;;;;9.97;76.44;102075.00;15700288;28;20444;-60
2021/11/06 04:46:10;;;;;;;1999.90;999.90;;;;;;;9.90;76.98;102091.25;15697851;28;20041;-60
2021/11/06 04:53:44;;;;;;;1999.90;999.90;;;;;;;10.11;76.37;102087.13;15688698;28;20049;-58
2021/11/06 05:01:18;;;;;;;1999.90;999.90;;;;;;;10.06;76.13;102075.16;15717554;28;20063;-60
2021/11/06 05:08:52;;;;;;;;;;;;;;;10.34;75.23;102079.88;15689905;28;20165;-60
2021/11/06 05:16:25;;;;;;;1999.90;999.90;;;;;;;10.19;75.62;102074.44;15677219;28;19920;-60
2021/11/06 05:23:59;;;;;;;1999.90;999.90;;;;;;;10.12;75.91;102066.47;15705604;28;20448;-61
2021/11/06 05:31:31;;;;;;;1999.90;999.90;;;;;;;10.06;75.75;102069.59;15705039;28;20049;-61
2021/11/06 05:39:05;;;;;;;1999.90;999.90;;;;;;;10.33;74.38;102080.19;15682224;28;20140;-58
2021/11/06 05:46:38;;;;;;;1999.90;999.90;;;;;;;10.18;74.68;102083.94;15663788;28;20418;-61
2021/11/06 05:54:13;;;;;;;1999.90;999.90;;;;;;;10.21;75.12;102077.75;15704582;28;20085;-60
2021/11/06 06:01:46;;;;;;;1999.90;999.90;;;;;;;10.07;75.52;102074.88;15670235;28;20059;-59
2021/11/06 06:09:20;;;;;;;1999.90;999.90;;;;;;;10.26;74.60;102094.50;15687976;28;20045;-59
2021/11/06 06:16:52;;;;;;;1999.90;999.90;;;;;;;10.16;75.51;102091.78;15696714;28;20393;-60
2021/11/06 06:24:26;;;;;;;1999.90;999.90;;;;;;;10.26;74.83;102094.50;15697277;28;20053;-60
2021/11/06 06:31:59;;;;;;;1999.90;999.90;;;;;;;10.40;74.18;102108.53;15670735;28;20099;-58
2021/11/06 06:39:33;;;;;;;1999.90;999.90;;;;;;;10.22;74.79;102104.59;15697551;28;20037;-60
2021/11/06 06:47:06;;;;;;;1999.90;999.90;;;;;;;10.62;73.38;102113.56;15705173;28;20075;-61
2021/11/06 06:54:40;;;;;;;1999.90;999.90;;;;;;;10.57;73.75;102124.81;15701335;28;20584;-61
2021/11/06 07:02:14;;;;;;;1999.90;999.90;;;;;;;10.91;72.68;102136.59;15695333;28;20476;-61
2021/11/06 07:09:51;;;;;;;1999.90;999.90;;;;;;;10.98;72.64;102130.66;15739406;28;20562;-59
2021/11/06 07:17:24;;;;;;;1999.90;999.90;;;;;;;11.01;72.11;102145.97;15682631;28;20053;-59
2021/11/06 07:24:57;;;;;;;1999.90;999.90;;;;;;;11.18;70.58;102141.53;15691976;28;20049;-59
2021/11/06 07:32:31;;;;;;;1999.90;999.90;;;;;;;11.16;70.75;102143.81;15721755;28;20077;-59
2021/11/06 07:40:07;;;;;;;;;;;;;;;11.44;69.89;102153.13;15712059;28;20044;-60
2021/11/06 07:47:41;;;;;;;1999.90;999.90;;;;;;;11.11;69.90;102154.22;15732024;28;20403;-59
2021/11/06 07:55:16;;;;;;;1999.90;999.90;;;;;;;11.32;69.66;102166.75;15717915;28;20045;-59
2021/11/06 08:02:54;;;;;;;1999.90;999.90;;;;;;;11.31;69.35;102167.88;15723760;28;20397;-59
2021/11/06 08:10:28;;;;;;;1999.90;999.90;;;;;;;11.23;69.16;102171.34;15722021;28;20722;-59
2021/11/06 08:18:01;;;;;;;1999.90;999.90;;;;;;;11.67;67.75;102175.69;15716825;28;20160;-60
2021/11/06 08:25:35;;;;;;;1999.90;999.90;;;;;;;11.47;68.09;102171.28;15708615;28;20037;-57
2021/11/06 08:33:08;;;;;;;1999.90;999.90;;;;;;;11.52;68.32;102176.78;15741021;28;20070;-57
2021/11/06 08:40:44;;;;;;;1999.90;999.90;;;;;;;12.46;66.02;102173.72;15678655;28;20064;-55
2021/11/06 08:48:20;;;;;;;1999.90;999.90;;;;;;;12.55;64.58;102173.81;15705823;28;20408;-59
2021/11/06 08:55:55;;;;;;;1999.90;999.90;;;;;;;12.98;63.99;102174.28;15726126;28;20052;-58
2021/11/06 09:03:28;;;;;;;1999.90;999.90;;;;;;;14.21;61.52;102167.34;15770268;23;20039;-61
2021/11/06 09:11:05;;;;;;;1999.90;999.90;;;;;;;14.61;58.89;102173.00;15816085;28;20075;-63
2021/11/06 09:18:39;;;;;;;1999.90;999.90;;;;;;;14.34;58.68;102177.63;15843401;28;20290;-62
2021/11/06 09:26:13;;;;;;;1999.90;999.90;;;;;;;14.45;59.54;102183.81;15863552;28;20039;-62
2021/11/06 09:33:47;;;;;;;1999.90;999.90;;;;;;;13.84;59.51;102172.22;15857220;28;20061;-62
2021/11/06 09:41:21;;;;;;;1999.90;999.90;;;;;;;13.93;59.66;102168.66;15864078;28;20126;-63
2021/11/06 09:48:54;;;;;;;1999.90;999.90;;;;;;;14.04;59.05;102170.03;15856384;28;20044;-63
2021/11/06 09:56:29;;;;;;;1999.90;999.90;;;;;;;14.29;59.05;102176.97;15862354;28;20416;-62
2021/11/06 10:04:07;;;;;;;1999.90;999.90;;;;;;;14.25;58.63;102170.31;15854776;28;20074;-62
2021/11/06 10:11:45;;;;;;;1999.90;999.90;;;;;;;15.21;56.16;102169.47;15859988;28;20040;-62
2021/11/06 10:19:19;;;;;;;1999.90;999.90;;;;;;;16.13;53.19;102172.88;15847936;28;20495;-63
2021/11/06 10:26:53;;;;;;;1999.90;999.90;;;;;;;16.25;53.87;102161.75;15853046;28;20377;-62
2021/11/06 10:34:32;;;;;;;1999.90;999.90;;;;;;;17.07;51.63;102148.22;15847298;28;20056;-63
2021/11/06 10:42:16;;;;;;;1999.90;999.90;;;;;;;16.93;52.38;102161.78;15858247;28;20309;-62
2021/11/06 10:49:50;;;;;;;1999.90;999.90;;;;;;;15.37;55.83;102148.16;15855595;28;20050;-63
2021/11/06 10:57:24;;;;;;;;;;;;;;;14.23;59.02;102145.38;15873915;28;20044;-63
2021/11/06 11:04:57;;;;;;;1999.90;999.90;;;;;;;14.44;59.08;102143.69;15856489;28;19926;-63
2021/11/06 11:12:31;;;;;;;1999.90;999.90;;;;;;;14.09;59.64;102134.25;15845308;28;20044;-63
2021/11/06 11:20:22;;;;;;;1999.90;999.90;;;;;;;13.26;61.81;102128.25;15838269;28;20507;-62
2021/11/06 11:27:56;;;;;;;1999.90;999.90;;;;;;;13.78;61.49;102122.19;15819975;28;20451;-62
2021/11/06 11:35:29;;;;;;;1999.90;999.90;;;;;;;14.03;60.25;102126.28;15812576;28;20047;-60
2021/11/06 11:43:14;;;;;;;1999.90;999.90;;;;;;;14.25;59.85;102112.19;15852844;28;20148;-60
2021/11/06 11:50:48;;;;;;;1999.90;999.90;;;;;;;14.09;60.62;102108.16;15833253;28;20119;-62
2021/11/06 11:58:25;;;;;;;1999.90;999.90;;;;;;;14.26;60.38;102111.03;15830336;28;20481;-62
2021/11/06 12:05:57;;;;;;;1999.90;999.90;;;;;;;14.17;59.71;102104.53;15850382;28;20127;-62
2021/11/06 12:13:36;;;;;;;1999.90;999.90;;;;;;;14.43;59.47;102079.38;15820247;28;20304;-62
2021/11/06 12:21:30;;;;;;;1999.90;999.90;;;;;;;14.44;58.99;102081.03;15827617;28;20051;-62
2021/11/06 12:37:05;;;;;;;1999.90;999.90;;;;;;;14.31;59.67;102077.19;15781096;27;20451;-64
2021/11/06 12:45:10;;;;;;;1999.90;999.90;;;;;;;14.37;59.74;102067.47;15782535;28;20041;-62
2021/11/06 12:52:49;;;;;;;1999.90;999.90;;;;;;;14.44;59.91;102067.84;15782607;28;20048;-60
2021/11/06 13:08:41;;;;;;;1999.90;999.90;;;;;;;14.26;61.29;102051.25;15785752;28;20040;-64
2021/11/06 13:16:19;;;;;;;1999.90;999.90;;;;;;;14.04;61.14;102049.34;15788674;28;20049;-64
2021/11/06 13:24:02;;;;;;;1999.90;999.90;;;;;;;13.84;61.14;102031.13;15789198;28;20048;-61
2021/11/06 13:31:56;;;;;;;1999.90;999.90;;;;;;;13.78;61.20;102030.44;15788646;28;20504;-64
2021/11/06 13:39:36;;;;;;;1999.90;999.90;;;;;;;13.70;61.89;102020.00;15738886;28;20420;-64
2021/11/06 13:47:12;;;;;;;1999.90;999.90;;;;;;;13.59;62.19;102007.41;15753725;28;20093;-62
2021/11/06 13:54:47;;;;;;;1999.90;999.90;;;;;;;13.59;62.43;102013.03;15762513;28;20114;-64
2021/11/06 14:02:45;;;;;;;1999.90;999.90;;;;;;;13.58;62.31;102002.97;15745732;28;20055;-63
2021/11/06 14:10:30;;;;;;;1999.90;999.90;;;;;;;13.56;63.01;101999.66;15744904;28;20036;-64
2021/11/06 14:18:11;;;;;;;1999.90;999.90;;;;;;;13.42;63.45;101994.13;15746076;28;20052;-62
2021/11/06 14:25:51;;;;;;;1999.90;999.90;;;;;;;13.52;63.13;101985.44;15740190;28;20037;-60
2021/11/06 14:33:31;;;;;;;1999.90;999.90;;;;;;;13.42;62.82;101973.66;15744312;28;20048;-62
2021/11/06 14:41:14;;;;;;;1999.90;999.90;;;;;;;13.41;63.28;101974.81;15739666;28;20033;-63
2021/11/06 14:49:04;;;;;;;1999.90;999.90;;;;;;;13.58;62.97;101969.31;15695390;28;20060;-64
2021/11/06 14:56:42;;;;;;;1999.90;999.90;;;;;;;13.26;62.90;101956.44;15720074;28;20132;-63
2021/11/06 15:12:14;;;;;;;1999.90;999.90;;;;;;;13.28;62.10;101945.72;15737134;28;20106;-63
2021/11/06 15:19:53;;;;;;;1999.90;999.90;;;;;;;13.38;62.45;101939.03;15721872;28;20055;-64
2021/11/06 15:27:30;;;;;;;1999.90;999.90;;;;;;;13.40;62.91;101928.31;15741805;28;20056;-63
2021/11/06 15:35:12;;;;;;;1999.90;999.90;;;;;;;13.03;64.25;101930.41;15740114;28;20064;-64
2021/11/06 15:42:51;;;;;;;1999.90;999.90;;;;;;;12.79;65.33;101918.69;15738648;28;20060;-63
2021/11/06 15:50:31;;;;;;;1999.90;999.90;;;;;;;12.94;65.03;101913.53;15737649;28;20047;-62
2021/11/06 15:58:05;;;;;;;1999.90;999.90;;;;;;;12.99;64.94;101899.38;15738072;28;20056;-63
2021/11/06 16:05:39;;;;;;;1999.90;999.90;;;;;;;13.00;65.77;101897.41;15737802;28;20482;-63
2021/11/06 16:13:15;;;;;;;1999.90;999.90;;;;;;;13.06;66.12;101887.72;15736202;28;20067;-63
2021/11/06 16:20:55;;;;;;;1999.90;999.90;;;;;;;12.98;66.85;101875.31;15734222;28;20136;-63
2021/11/06 16:28:57;;;;;;;1999.90;999.90;;;;;;;12.99;66.93;101870.53;15727028;28;20090;-63
2021/11/06 16:36:34;;;;;;;1999.90;999.90;;;;;;;12.78;67.88;101866.63;15727634;28;20044;-64
2021/11/06 16:44:09;;;;;;;1999.90;999.90;;;;;;;12.40;68.48;101851.06;15726098;28;20040;-64
2021/11/06 16:51:48;;;;;;;1999.90;999.90;;;;;;;12.55;67.70;101847.03;15733052;28;20068;-64
2021/11/06 16:59:33;;;;;;;1999.90;999.90;;;;;;;12.35;67.05;101845.56;15738151;28;20075;-63
2021/11/06 17:07:07;;;;;;;1999.90;999.90;;;;;;;12.21;66.18;101852.38;15737127;28;20136;-64
2021/11/06 17:14:46;;;;;;;1999.90;999.90;;;;;;;12.51;65.28;101850.81;15736437;28;20437;-64
2021/11/06 17:22:20;;;;;;;1999.90;999.90;;;;;;;12.28;65.43;101847.16;15742244;28;20497;-64
2021/11/06 17:29:58;;;;;;;1999.90;999.90;;;;;;;12.28;65.61;101841.56;15737709;28;20127;-63
2021/11/06 17:37:35;;;;;;;1999.90;999.90;;;;;;;12.05;65.84;101835.94;15741344;28;20523;-62
2021/11/06 17:45:29;;;;;;;1999.90;999.90;;;;;;;11.79;66.58;101832.06;15747248;28;20044;-65
2021/11/06 17:53:08;;;;;;;1999.90;999.90;;;;;;;11.77;66.36;101825.94;15750695;28;20047;-60
2021/11/06 18:00:51;;;;;;;1999.90;999.90;;;;;;;11.63;66.93;101813.97;15757987;28;20055;-57
2021/11/06 18:08:28;;;;;;;1999.90;999.90;;;;;;;11.43;66.76;101801.25;15745651;28;20041;-59
2021/11/06 18:16:09;;;;;;;1999.90;999.90;;;;;;;11.53;66.50;101795.44;15746951;28;20124;-63
2021/11/06 18:23:45;;;;;;;1999.90;999.90;;;;;;;11.23;67.16;101778.19;15742985;28;20098;-64
2021/11/06 18:31:24;;;;;;;1999.90;999.90;;;;;;;11.09;67.56;101774.59;15729980;28;20033;-63
2021/11/06 18:39:00;;;;;;;1999.90;999.90;;;;;;;10.99;67.65;101746.88;15732877;28;20567;-63
2021/11/06 18:46:48;;;;;;;1999.90;999.90;;;;;;;10.94;67.69;101742.25;15744987;28;20072;-59
2021/11/06 18:54:22;;;;;;;1999.90;999.90;;;;;;;10.89;67.65;101733.13;15744407;28;20053;-60
2021/11/06 19:01:56;;;;;;;;;;;;;;;10.94;67.95;101725.47;15743209;28;20040;-60
2021/11/06 19:09:29;;;;;;;1999.90;999.90;;;;;;;10.78;68.19;101721.34;15743170;28;19920;-60
2021/11/06 19:17:03;;;;;;;1999.90;999.90;;;;;;;10.82;68.01;101708.41;15743097;28;20559;-60
2021/11/06 19:24:36;;;;;;;1999.90;999.90;;;;;;;10.70;68.42;101706.13;15742730;28;20119;-60
2021/11/06 19:32:10;;;;;;;1999.90;999.90;;;;;;;10.67;68.66;101691.97;15740716;28;20052;-60
2021/11/06 19:39:43;;;;;;;1999.90;999.90;;;;;;;10.78;68.39;101693.41;15741575;28;20052;-60
2021/11/06 19:47:17;;;;;;;1999.90;999.90;;;;;;;10.80;68.21;101691.13;15742737;28;20094;-60
2021/11/06 19:54:51;;;;;;;1999.90;999.90;;;;;;;10.64;68.90;101685.06;15741973;28;20068;-57
2021/11/06 20:02:25;;;;;;;1999.90;999.90;;;;;;;10.79;67.91;101681.09;15739866;28;20044;-58
2021/11/06 20:09:57;;;;;;;1999.90;999.90;;;;;;;10.63;68.35;101677.00;15742011;28;20041;-61
2021/11/06 20:17:31;;;;;;;1999.90;999.90;;;;;;;10.84;67.57;101660.66;15738114;28;20064;-60
2021/11/06 20:25:05;;;;;;;1999.90;999.90;;;;;;;10.65;67.55;101657.97;15722583;28;20079;-60
2021/11/06 20:32:40;;;;;;;1999.90;999.90;;;;;;;10.84;67.20;101653.09;15740144;28;20075;-61
2021/11/06 20:40:14;;;;;;;1999.90;999.90;;;;;;;10.91;66.71;101647.06;15739856;28;20040;-60
2021/11/06 20:47:49;;;;;;;1999.90;999.90;;;;;;;10.84;66.62;101627.97;15739481;28;20508;-60
2021/11/06 20:55:22;;;;;;;1999.90;999.90;;;;;;;10.76;66.60;101634.28;15728924;28;20049;-60
2021/11/06 21:02:59;;;;;;;1999.90;999.90;;;;;;;10.82;66.43;101626.59;15752911;28;20044;-61
2021/11/06 21:10:35;;;;;;;1999.90;999.90;;;;;;;10.65;66.89;101618.88;15751642;28;20464;-60
2021/11/06 21:18:18;;;;;;;1999.90;999.90;;;;;;;10.88;66.07;101603.03;15751938;28;20047;-62
2021/11/06 21:25:51;;;;;;;1999.90;999.90;;;;;;;10.67;66.42;101585.91;15751098;28;20109;-60
2021/11/06 21:33:34;;;;;;;1999.90;999.90;;;;;;;10.64;66.71;101592.13;15749543;28;20044;-60
2021/11/06 21:41:12;;;;;;;1999.90;999.90;;;;;;;10.64;66.85;101575.38;15744798;28;20432;-58
2021/11/06 21:48:47;;;;;;;1999.90;999.90;;;;;;;10.73;66.73;101572.63;15728911;28;20072;-59
2021/11/06 21:56:20;;;;;;;1999.90;999.90;;;;;;;10.72;66.45;101555.06;15745340;28;20037;-59
2021/11/06 22:03:54;;;;;;;1999.90;999.90;;;;;;;10.76;66.29;101556.09;15747985;28;20036;-63
2021/11/06 22:11:27;;;;;;;1999.90;999.90;;;;;;;10.65;66.23;101544.34;15745407;28;20048;-58
2021/11/06 22:19:02;;;;;;;1999.90;999.90;;;;;;;10.88;65.41;101538.81;15751395;28;20041;-56
2021/11/06 22:26:36;;;;;;;1999.90;999.90;;;;;;;10.63;66.21;101524.31;15751053;28;20596;-57
2021/11/06 22:34:10;;;;;;;1999.90;999.90;;;;;;;10.72;65.77;101535.53;15743734;28;20076;-60
2021/11/06 22:41:43;;;;;;;1999.90;999.90;;;;;;;10.56;66.55;101525.88;15746986;28;20182;-60
2021/11/06 22:49:18;;;;;;;1999.90;999.90;;;;;;;10.58;66.01;101524.41;15744276;28;20040;-59
2021/11/06 22:56:51;;;;;;;1999.90;999.90;;;;;;;10.54;66.54;101484.31;15743211;28;20037;-57
2021/11/06 23:04:29;;;;;;;1999.90;999.90;;;;;;;10.76;66.00;101465.94;15744290;28;20464;-59
2021/11/06 23:12:02;;;;;;;1999.90;999.90;;;;;;;10.58;66.45;101451.84;15743894;28;20047;-60
2021/11/06 23:19:36;;;;;;;1999.90;999.90;;;;;;;10.62;65.95;101438.06;15742400;28;20036;-59
2021/11/06 23:27:09;;;;;;;1999.90;999.90;;;;;;;10.51;66.50;101414.34;15741353;28;20154;-58
2021/11/06 23:34:43;;;;;;;1999.90;999.90;;;;;;;10.72;65.89;101400.72;15739561;28;20036;-61
2021/11/06 23:42:16;;;;;;;1999.90;999.90;;;;;;;10.63;65.69;101386.72;15741133;28;20048;-61
2021/11/06 23:49:52;;;;;;;1999.90;999.90;;;;;;;10.61;66.05;101350.72;15740182;28;20048;-60
2021/11/06 23:57:34;;;;;;;1999.90;999.90;;;;;;;10.60;65.97;101342.69;15740431;28;20503;-60
